Souderton, Pennsylvania
Current Conditions -  °F | °C
As of 4:54 AM on Sunday 25 Jan 2015 (Local Time) from KDYL Reporting Station
Broken Clouds Broken Clouds  
Wind Chill: 26°   Ceiling: 3100
Heat Index: 32°   Visibility: 10mi
Dew Point: 26°   Wind: 6mph
Humidity: 79%   Direction: 230°SW
Pressure: 29.64"   Gusts: NA
Location:  40.31°N, 75.33°W
Report Text: KDYL 250954Z AUTO 23005KT 10SM BKN031 BKN065 00/M03 A2964 RMK AO2 SLP044 T00001033
Loading
Personal Weather Stations






























Interactive Weather Map New forecast layout! Learn more

10-Day Weather Forecast

Advertisements
Track Severe Weather on mobile